Time;durP1;ratioP1;P1;durP2;ratioP2;P2;SDS_P1;SDS_P2;PMS_P1;PMS_P2;Temp;Humidity;BMP_temperature;BMP_pressure;BME280_temperature;BME280_humidity;BME280_pressure;Samples;Min_cycle;Max_cycle;Signal;HPM_P1;HPM_P2
2023/11/21 00:02:24;;;;;;;4.93;2.17;;;6.80;99.90;;;;;;4961930;28;20030;-72
2023/11/21 00:04:56;;;;;;;4.25;1.60;;;6.80;99.90;;;;;;4945989;28;20039;-71
2023/11/21 00:07:21;;;;;;;6.45;1.75;;;6.80;99.90;;;;;;4946060;28;20038;-73
2023/11/21 00:09:47;;;;;;;2.78;1.70;;;6.80;99.90;;;;;;4965903;28;20042;-73
2023/11/21 00:12:16;;;;;;;6.18;1.40;;;6.80;99.90;;;;;;4958525;28;20031;-73
2023/11/21 00:14:42;;;;;;;3.28;1.25;;;6.80;99.90;;;;;;4972826;28;20655;-73
2023/11/21 00:17:08;;;;;;;2.70;1.63;;;6.80;99.90;;;;;;4957277;28;20023;-73
2023/11/21 00:19:37;;;;;;;1.88;1.20;;;6.80;99.90;;;;;;4973671;28;20085;-72
2023/11/21 00:22:03;;;;;;;2.28;1.23;;;6.80;99.90;;;;;;4972023;28;20031;-73
2023/11/21 00:24:38;;;;;;;3.95;1.52;;;6.80;99.90;;;;;;4973190;28;20034;-73
2023/11/21 00:27:04;;;;;;;4.63;1.67;;;6.80;99.90;;;;;;4974500;28;20681;-73
2023/11/21 00:29:30;;;;;;;3.42;1.10;;;6.90;99.90;;;;;;4971838;28;20030;-73
2023/11/21 00:31:56;;;;;;;1.98;1.10;;;6.90;99.90;;;;;;4967758;28;20452;-73
2023/11/21 00:34:24;;;;;;;2.42;1.30;;;6.90;99.90;;;;;;4971119;28;20027;-73
2023/11/21 00:36:50;;;;;;;5.53;1.40;;;6.90;99.90;;;;;;4974336;28;20500;-73
2023/11/21 00:39:18;;;;;;;4.22;1.58;;;6.90;99.90;;;;;;4977153;28;20055;-73
2023/11/21 00:41:44;;;;;;;4.95;1.65;;;6.90;99.90;;;;;;4956555;28;20027;-72
2023/11/21 00:44:11;;;;;;;1.40;1.33;;;6.90;99.90;;;;;;4970116;28;20024;-73
2023/11/21 00:46:36;;;;;;;2.15;1.40;;;6.90;99.90;;;;;;4973353;28;20045;-73
2023/11/21 00:49:04;;;;;;;5.65;1.10;;;6.90;99.90;;;;;;4971522;28;20507;-73
2023/11/21 00:51:30;;;;;;;3.00;1.48;;;7.00;99.90;;;;;;4976238;28;20086;-73
2023/11/21 00:53:55;;;;;;;2.28;1.00;;;7.00;99.90;;;;;;4949204;28;20508;-73
2023/11/21 00:56:23;;;;;;;3.42;1.40;;;6.90;99.90;;;;;;4969241;28;20038;-73
2023/11/21 00:58:52;;;;;;;3.22;1.20;;;7.00;99.90;;;;;;4958866;28;20042;-73
2023/11/21 01:01:22;;;;;;;2.67;1.17;;;7.00;99.90;;;;;;4966653;28;20334;-73
2023/11/21 01:03:48;;;;;;;1.60;1.20;;;6.90;99.90;;;;;;4965205;28;20531;-73
2023/11/21 01:06:15;;;;;;;1.33;1.20;;;7.00;99.90;;;;;;4953827;28;20038;-73
2023/11/21 01:08:41;;;;;;;2.83;1.00;;;7.00;99.90;;;;;;4967750;28;20066;-73
2023/11/21 01:11:12;;;;;;;1.45;0.90;;;7.00;99.90;;;;;;4953051;28;20285;-73
2023/11/21 01:13:41;;;;;;;2.35;1.27;;;7.10;99.90;;;;;;4980640;28;20437;-73
2023/11/21 01:16:07;;;;;;;3.92;1.30;;;7.10;99.90;;;;;;4958797;28;20030;-73
2023/11/21 01:18:33;;;;;;;5.15;1.40;;;7.00;99.90;;;;;;4973617;28;20085;-74
2023/11/21 01:21:02;;;;;;;1.35;1.00;;;7.00;99.90;;;;;;4975422;28;20212;-73
2023/11/21 01:23:27;;;;;;;1.63;1.10;;;7.10;99.90;;;;;;4954930;28;20515;-73
2023/11/21 01:25:55;;;;;;;3.10;1.38;;;7.00;99.90;;;;;;4976189;28;20082;-74
2023/11/21 01:28:21;;;;;;;4.00;1.20;;;7.00;99.90;;;;;;4971419;28;20501;-74
2023/11/21 01:30:47;;;;;;;2.67;1.00;;;7.00;99.90;;;;;;4976337;28;20066;-74
2023/11/21 01:33:15;;;;;;;1.67;1.42;;;7.00;99.90;;;;;;4976642;28;20110;-74
2023/11/21 01:35:44;;;;;;;2.67;1.00;;;7.00;99.90;;;;;;4979833;28;20024;-74
2023/11/21 01:38:10;;;;;;;2.55;1.00;;;7.00;99.90;;;;;;4975539;28;20029;-75
2023/11/21 01:40:35;;;;;;;5.38;1.50;;;7.00;99.90;;;;;;4972263;28;20055;-74
2023/11/21 01:43:04;;;;;;;1.15;1.10;;;7.00;99.90;;;;;;4979635;28;20031;-74
2023/11/21 01:45:33;;;;;;;2.67;1.23;;;7.00;99.90;;;;;;4950989;28;20048;-74
2023/11/21 01:48:00;;;;;;;8.00;1.50;;;7.00;99.90;;;;;;4973076;28;20074;-74
2023/11/21 01:50:26;;;;;;;2.83;1.35;;;7.00;99.90;;;;;;4974470;28;20019;-74
2023/11/21 01:52:52;;;;;;;4.03;1.08;;;7.00;99.90;;;;;;4969971;28;20043;-74
2023/11/21 01:55:18;;;;;;;2.60;1.30;;;7.00;99.90;;;;;;4972975;28;20430;-74
2023/11/21 01:57:45;;;;;;;3.42;1.17;;;7.00;99.90;;;;;;4978152;28;20119;-74
2023/11/21 02:00:19;;;;;;;1.60;1.20;;;7.00;99.90;;;;;;4954191;28;20030;-74
2023/11/21 02:02:48;;;;;;;3.30;1.27;;;7.00;99.90;;;;;;4973684;28;20431;-74
2023/11/21 02:05:18;;;;;;;1.48;0.95;;;7.00;99.90;;;;;;4970910;28;20122;-74
2023/11/21 02:07:52;;;;;;;2.75;1.38;;;7.00;99.90;;;;;;4979516;28;20030;-74
2023/11/21 02:10:22;;;;;;;3.90;1.48;;;7.10;99.90;;;;;;4969932;28;20031;-74
2023/11/21 02:12:51;;;;;;;3.25;1.08;;;7.10;99.90;;;;;;4973736;28;20023;-74
2023/11/21 02:15:20;;;;;;;1.65;1.23;;;7.10;99.90;;;;;;4974896;28;20031;-74
2023/11/21 02:17:50;;;;;;;3.22;1.15;;;7.10;99.90;;;;;;4973498;28;20074;-74
2023/11/21 02:20:17;;;;;;;3.33;1.35;;;7.10;99.90;;;;;;4980207;28;20038;-74
2023/11/21 02:22:48;;;;;;;2.10;1.10;;;7.10;99.90;;;;;;4958050;28;20289;-74
2023/11/21 02:25:14;;;;;;;2.85;1.10;;;7.10;99.90;;;;;;4967029;28;20058;-74
2023/11/21 02:27:39;;;;;;;1.45;1.10;;;7.20;99.90;;;;;;4981426;28;20031;-74
2023/11/21 02:30:07;;;;;;;1.30;1.20;;;7.20;99.90;;;;;;4964566;28;20124;-74
2023/11/21 02:32:34;;;;;;;2.30;1.20;;;7.10;99.90;;;;;;4954980;28;20493;-74
2023/11/21 02:35:01;;;;;;;1.95;1.80;;;7.10;99.90;;;;;;4986365;28;20045;-74
2023/11/21 02:37:27;;;;;;;5.90;1.40;;;7.10;99.90;;;;;;4984426;28;20049;-74
2023/11/21 02:39:52;;;;;;;4.95;1.35;;;7.10;99.90;;;;;;4980742;28;20035;-74
2023/11/21 02:42:21;;;;;;;2.60;1.10;;;7.10;99.90;;;;;;4979625;28;20023;-74
2023/11/21 02:44:47;;;;;;;1.25;1.15;;;7.10;99.90;;;;;;4981173;28;20081;-74
2023/11/21 02:47:13;;;;;;;2.00;1.13;;;7.00;99.90;;;;;;4980540;28;20031;-74
2023/11/21 02:49:39;;;;;;;2.47;1.00;;;7.00;99.90;;;;;;4978624;28;20034;-74
2023/11/21 02:52:05;;;;;;;3.15;1.45;;;7.00;99.90;;;;;;4979375;28;20027;-74
2023/11/21 02:54:31;;;;;;;3.15;1.30;;;7.00;99.90;;;;;;4982180;28;20603;-74
2023/11/21 02:56:56;;;;;;;2.63;1.35;;;7.10;99.90;;;;;;4972624;28;20023;-75
2023/11/21 02:59:22;;;;;;;1.08;1.08;;;7.00;99.90;;;;;;4961359;28;20034;-72
2023/11/21 03:01:49;;;;;;;1.65;1.08;;;7.00;99.90;;;;;;4971739;28;20839;-74
2023/11/21 03:04:17;;;;;;;3.45;1.02;;;7.00;99.90;;;;;;4981818;28;20042;-74
2023/11/21 03:06:44;;;;;;;2.40;1.38;;;6.90;99.90;;;;;;4958159;28;20031;-73
2023/11/21 03:09:11;;;;;;;2.78;1.50;;;7.00;99.90;;;;;;4981807;28;20039;-73
2023/11/21 03:11:37;;;;;;;3.95;1.30;;;6.90;99.90;;;;;;4973928;28;20097;-72
2023/11/21 03:14:05;;;;;;;1.70;1.23;;;6.80;99.90;;;;;;4986308;28;20062;-73
2023/11/21 03:16:31;;;;;;;1.83;1.20;;;6.70;99.90;;;;;;4978334;28;20090;-74
2023/11/21 03:18:57;;;;;;;3.22;1.67;;;6.80;99.90;;;;;;4987258;28;20023;-74
2023/11/21 03:21:23;;;;;;;5.00;1.73;;;6.70;99.90;;;;;;4986384;28;20045;-76
2023/11/21 03:23:48;;;;;;;1.55;1.17;;;6.70;99.90;;;;;;4988236;28;20035;-74
2023/11/21 03:26:14;;;;;;;2.75;1.35;;;6.70;99.90;;;;;;4986124;28;20031;-74
2023/11/21 03:28:40;;;;;;;3.95;1.33;;;6.70;99.90;;;;;;4989361;28;20033;-74
2023/11/21 03:31:09;;;;;;;1.20;1.10;;;6.70;99.90;;;;;;4981336;28;20035;-74
2023/11/21 03:33:35;;;;;;;1.27;1.17;;;6.70;99.90;;;;;;4983695;28;20781;-76
2023/11/21 03:36:01;;;;;;;1.88;1.00;;;6.60;99.90;;;;;;4991027;28;20034;-76
2023/11/21 03:38:27;;;;;;;1.15;1.13;;;6.60;99.90;;;;;;4987657;28;20038;-73
2023/11/21 03:40:53;;;;;;;2.35;1.10;;;6.50;99.90;;;;;;4987345;28;20044;-77
2023/11/21 03:43:19;;;;;;;2.60;1.30;;;6.50;99.90;;;;;;4989102;28;20027;-74
2023/11/21 03:45:44;;;;;;;3.72;1.15;;;6.40;99.90;;;;;;4998758;28;20033;-75
2023/11/21 03:48:12;;;;;;;1.75;1.30;;;6.40;99.90;;;;;;4995015;28;20487;-75
2023/11/21 03:50:38;;;;;;;1.80;1.23;;;6.30;99.90;;;;;;4994362;28;20010;-76
2023/11/21 03:53:04;;;;;;;2.03;1.20;;;6.40;99.90;;;;;;4993326;28;20027;-75
2023/11/21 03:55:31;;;;;;;2.17;1.02;;;6.40;99.90;;;;;;5006083;28;20019;-76
2023/11/21 03:57:57;;;;;;;1.48;1.10;;;6.40;99.90;;;;;;5000185;28;20048;-76
2023/11/21 04:00:23;;;;;;;4.80;1.20;;;6.40;99.90;;;;;;5000221;28;20022;-76
2023/11/21 04:02:51;;;;;;;2.95;1.20;;;6.40;99.90;;;;;;4993075;28;20073;-75
2023/11/21 04:05:17;;;;;;;1.38;1.15;;;6.50;99.90;;;;;;4976973;28;20016;-76
2023/11/21 04:07:42;;;;;;;1.92;1.48;;;6.50;99.90;;;;;;4971047;28;20441;-74
2023/11/21 04:10:12;;;;;;;2.60;1.10;;;6.40;99.90;;;;;;4959937;28;20057;-74
2023/11/21 04:12:37;;;;;;;1.92;0.88;;;6.40;99.90;;;;;;4973448;28;20030;-73
2023/11/21 04:15:03;;;;;;;0.93;0.93;;;6.40;99.90;;;;;;4985023;28;20094;-73
2023/11/21 04:17:29;;;;;;;1.00;1.00;;;6.40;99.90;;;;;;4977481;28;20043;-73
2023/11/21 04:19:55;;;;;;;3.83;0.98;;;6.40;99.90;;;;;;4981252;28;20022;-75
2023/11/21 04:22:21;;;;;;;3.90;1.15;;;6.40;99.90;;;;;;4984259;28;20027;-73
2023/11/21 04:24:46;;;;;;;1.15;0.98;;;6.40;99.90;;;;;;4982969;28;20033;-75
2023/11/21 04:27:13;;;;;;;3.70;1.67;;;6.40;99.90;;;;;;4978128;28;20039;-73
2023/11/21 04:29:38;;;;;;;1.60;1.10;;;6.40;99.90;;;;;;4987092;28;20027;-74
2023/11/21 04:32:04;;;;;;;1.33;1.10;;;6.40;99.90;;;;;;4975659;28;20031;-74
2023/11/21 04:34:30;;;;;;;5.28;1.10;;;6.40;99.90;;;;;;4973519;28;20031;-73
2023/11/21 04:36:57;;;;;;;1.45;1.45;;;6.40;99.90;;;;;;4976388;28;20029;-74
2023/11/21 04:39:23;;;;;;;2.35;1.00;;;6.40;99.90;;;;;;4978308;28;20113;-75
2023/11/21 04:41:50;;;;;;;0.80;0.80;;;6.40;99.90;;;;;;4953704;28;20034;-74
2023/11/21 04:44:16;;;;;;;1.77;0.90;;;6.40;99.90;;;;;;4978189;28;20042;-73
2023/11/21 04:46:41;;;;;;;1.85;1.00;;;6.40;99.90;;;;;;4974007;28;20023;-73
2023/11/21 04:49:07;;;;;;;1.10;0.90;;;6.40;99.90;;;;;;4955733;28;20031;-73
2023/11/21 04:51:33;;;;;;;3.70;1.10;;;6.40;99.90;;;;;;4975178;28;20031;-73
2023/11/21 04:53:59;;;;;;;1.65;1.10;;;6.40;99.90;;;;;;4954365;28;20102;-73
2023/11/21 04:56:24;;;;;;;1.60;0.82;;;6.40;99.90;;;;;;4973426;28;20488;-74
2023/11/21 04:58:50;;;;;;;2.22;0.90;;;6.40;99.90;;;;;;4974040;28;20031;-74
2023/11/21 05:01:16;;;;;;;1.10;1.05;;;6.30;99.90;;;;;;4966264;28;20027;-73
2023/11/21 05:03:41;;;;;;;2.38;1.05;;;6.30;99.90;;;;;;4974128;28;20035;-74
2023/11/21 05:06:10;;;;;;;1.08;0.77;;;6.30;99.90;;;;;;4977017;28;20481;-73
2023/11/21 05:08:36;;;;;;;;;;;6.30;99.90;;;;;;4982690;28;20023;-74
2023/11/21 05:11:02;;;;;;;1.15;1.08;;;6.30;99.90;;;;;;4971353;28;19918;-73
2023/11/21 05:13:28;;;;;;;1.25;0.90;;;6.30;99.90;;;;;;4979816;28;20042;-74
2023/11/21 05:15:57;;;;;;;0.90;0.90;;;6.30;99.90;;;;;;4978495;28;20067;-74
2023/11/21 05:18:23;;;;;;;3.05;1.05;;;6.30;99.90;;;;;;4968624;28;20480;-73
2023/11/21 05:20:48;;;;;;;3.47;1.17;;;6.30;99.90;;;;;;4979637;28;20042;-73
2023/11/21 05:23:14;;;;;;;1.95;1.10;;;6.30;99.90;;;;;;4971525;28;20509;-74
2023/11/21 05:25:41;;;;;;;1.02;1.00;;;6.20;99.90;;;;;;4981288;28;20030;-73
2023/11/21 05:28:07;;;;;;;2.35;1.30;;;6.20;99.90;;;;;;4967992;28;20571;-73
2023/11/21 05:30:32;;;;;;;1.00;0.90;;;6.10;99.90;;;;;;4970543;28;20114;-72
2023/11/21 05:32:58;;;;;;;2.40;1.30;;;6.10;99.90;;;;;;4971961;28;20039;-72
2023/11/21 05:35:23;;;;;;;1.63;1.50;;;6.00;99.90;;;;;;4979313;28;20098;-74
2023/11/21 05:37:49;;;;;;;2.60;1.90;;;5.90;99.90;;;;;;4979736;28;20044;-73
2023/11/21 05:40:15;;;;;;;2.70;1.85;;;5.90;99.90;;;;;;4979504;28;20022;-73
2023/11/21 05:42:41;;;;;;;2.00;1.90;;;5.80;99.90;;;;;;4976259;28;20429;-73
2023/11/21 05:45:11;;;;;;;3.97;2.10;;;5.80;99.90;;;;;;4959746;28;20037;-73
2023/11/21 05:47:46;;;;;;;2.97;1.80;;;5.80;99.90;;;;;;4966392;28;20037;-73
2023/11/21 05:50:16;;;;;;;1.60;1.50;;;5.80;99.90;;;;;;4975533;28;20508;-73
2023/11/21 05:52:44;;;;;;;1.55;1.42;;;5.90;99.90;;;;;;4985841;28;20220;-74
2023/11/21 05:55:10;;;;;;;3.55;1.23;;;5.80;99.90;;;;;;4974528;28;20071;-73
2023/11/21 05:57:37;;;;;;;3.20;1.20;;;5.80;99.90;;;;;;4977765;28;20400;-73
2023/11/21 06:00:11;;;;;;;1.20;1.20;;;5.80;99.90;;;;;;4978277;28;20023;-73
2023/11/21 06:02:38;;;;;;;1.90;1.38;;;5.80;99.90;;;;;;4976117;28;20034;-72
2023/11/21 06:05:04;;;;;;;3.97;1.42;;;5.80;99.90;;;;;;4952476;28;20042;-72
2023/11/21 06:07:30;;;;;;;2.47;1.40;;;5.90;99.90;;;;;;4976022;28;20026;-72
2023/11/21 06:09:55;;;;;;;1.50;1.40;;;5.90;99.90;;;;;;4973172;28;20031;-73
2023/11/21 06:12:21;;;;;;;1.60;1.50;;;5.80;99.90;;;;;;4976420;28;20038;-73
2023/11/21 06:14:47;;;;;;;3.40;1.60;;;5.80;99.90;;;;;;4976199;28;20046;-73
2023/11/21 06:17:13;;;;;;;3.03;1.60;;;5.80;99.90;;;;;;4958407;28;20511;-73
2023/11/21 06:19:39;;;;;;;2.22;1.40;;;5.80;99.90;;;;;;4978823;28;20023;-73
2023/11/21 06:22:05;;;;;;;4.13;1.70;;;5.70;99.90;;;;;;4977905;28;20081;-73
2023/11/21 06:24:31;;;;;;;3.53;1.63;;;5.70;99.90;;;;;;4975555;28;20039;-73
2023/11/21 06:26:57;;;;;;;3.75;1.65;;;5.70;99.90;;;;;;4983961;28;20030;-73
2023/11/21 06:29:23;;;;;;;10.55;2.13;;;5.60;99.90;;;;;;4962989;28;20039;-74
2023/11/21 06:31:51;;;;;;;5.85;2.95;;;5.60;99.90;;;;;;4973427;28;20039;-73
2023/11/21 06:34:17;;;;;;;3.25;2.08;;;5.60;99.90;;;;;;4974525;28;20026;-73
2023/11/21 06:36:43;;;;;;;7.18;3.03;;;5.60;99.90;;;;;;4979027;28;20098;-73
2023/11/21 06:39:08;;;;;;;3.15;2.05;;;5.60;99.90;;;;;;4970904;28;20086;-73
2023/11/21 06:41:34;;;;;;;6.68;3.03;;;5.50;99.90;;;;;;4979790;28;20033;-72
2023/11/21 06:44:00;;;;;;;3.38;2.22;;;5.50;99.90;;;;;;4964158;28;20110;-72
2023/11/21 06:46:35;;;;;;;4.93;1.85;;;5.60;99.90;;;;;;4948678;28;20083;-74
2023/11/21 06:49:00;;;;;;;2.83;1.50;;;5.50;99.90;;;;;;4967027;28;20026;-73
2023/11/21 06:51:26;;;;;;;2.15;1.83;;;5.50;99.90;;;;;;4966777;28;20731;-72
2023/11/21 06:53:51;;;;;;;2.47;1.45;;;5.50;99.90;;;;;;4963880;28;20071;-73
2023/11/21 06:56:18;;;;;;;2.65;1.45;;;5.50;99.90;;;;;;4964452;28;20502;-72
2023/11/21 06:58:45;;;;;;;1.67;1.30;;;5.50;99.90;;;;;;4965864;28;20019;-73
2023/11/21 07:01:15;;;;;;;5.22;1.40;;;5.50;99.90;;;;;;4967364;28;20058;-73
2023/11/21 07:03:41;;;;;;;5.78;1.55;;;5.50;99.90;;;;;;4962742;28;20038;-73
2023/11/21 07:06:07;;;;;;;3.10;1.77;;;5.60;99.90;;;;;;4967009;28;20022;-73
2023/11/21 07:08:33;;;;;;;1.40;1.30;;;5.50;99.90;;;;;;4966670;28;20041;-74
2023/11/21 07:10:59;;;;;;;1.13;1.10;;;5.50;99.90;;;;;;4950077;28;20066;-73
2023/11/21 07:13:24;;;;;;;2.60;1.55;;;5.50;99.90;;;;;;4932530;28;1115017;-73
2023/11/21 07:15:50;;;;;;;2.25;1.15;;;5.50;99.90;;;;;;4961868;28;20031;-73
2023/11/21 07:18:15;;;;;;;1.42;1.30;;;5.50;99.90;;;;;;4968391;28;20023;-73
2023/11/21 07:20:41;;;;;;;1.88;1.40;;;5.60;99.90;;;;;;4967108;28;20661;-73
2023/11/21 07:23:06;;;;;;;3.10;1.67;;;5.60;99.90;;;;;;4957008;28;20673;-74
2023/11/21 07:25:35;;;;;;;3.30;1.70;;;5.60;99.90;;;;;;4966739;28;20090;-72
2023/11/21 07:28:05;;;;;;;1.90;1.80;;;5.70;99.90;;;;;;4965892;28;20034;-71
2023/11/21 07:30:30;;;;;;;3.35;1.70;;;5.70;99.90;;;;;;4972265;28;20460;-74
2023/11/21 07:32:56;;;;;;;4.45;2.08;;;5.70;99.90;;;;;;4973157;28;20031;-72
2023/11/21 07:35:22;;;;;;;1.67;1.50;;;5.70;99.90;;;;;;4960257;28;20058;-73
2023/11/21 07:37:48;;;;;;;2.20;1.63;;;5.80;99.90;;;;;;4943168;28;20030;-73
2023/11/21 07:40:14;;;;;;;1.88;1.50;;;5.80;99.90;;;;;;4972549;28;20038;-73
2023/11/21 07:42:42;;;;;;;1.38;1.20;;;5.90;99.90;;;;;;4975255;28;20031;-73
2023/11/21 07:45:11;;;;;;;1.38;1.30;;;5.90;99.90;;;;;;4976613;28;20102;-73
2023/11/21 07:47:38;;;;;;;1.75;1.33;;;6.00;99.90;;;;;;4968589;28;20027;-72
2023/11/21 07:50:05;;;;;;;1.30;1.27;;;6.00;99.90;;;;;;4975390;28;20027;-72
2023/11/21 07:52:30;;;;;;;1.48;1.40;;;6.00;99.90;;;;;;4968502;28;20058;-73
2023/11/21 07:54:56;;;;;;;0.90;0.90;;;6.10;99.90;;;;;;4954603;28;20086;-72
2023/11/21 07:57:22;;;;;;;0.85;0.85;;;6.20;99.90;;;;;;4973467;28;20023;-72
2023/11/21 07:59:47;;;;;;;1.33;1.25;;;6.20;99.90;;;;;;4970899;28;20110;-72
2023/11/21 08:02:13;;;;;;;1.13;1.02;;;6.30;99.90;;;;;;4967773;28;20031;-73
2023/11/21 08:04:38;;;;;;;1.85;0.93;;;6.40;99.90;;;;;;4959384;28;20026;-74
2023/11/21 08:07:04;;;;;;;0.82;0.82;;;6.40;99.90;;;;;;4974669;28;20053;-74
2023/11/21 08:09:30;;;;;;;1.00;1.00;;;6.50;99.90;;;;;;4978132;28;20113;-77
2023/11/21 08:11:56;;;;;;;1.02;1.02;;;6.50;99.90;;;;;;4976087;28;20038;-74
2023/11/21 08:14:25;;;;;;;2.45;1.10;;;6.50;99.90;;;;;;4976237;28;20046;-73
2023/11/21 08:16:50;;;;;;;;;;;6.60;99.90;;;;;;4964978;28;20046;-77
2023/11/21 08:19:18;;;;;;;0.77;0.77;;;6.60;99.90;;;;;;4985173;28;19898;-75
2023/11/21 08:21:44;;;;;;;0.80;0.80;;;6.60;99.90;;;;;;4989848;28;20027;-75
2023/11/21 08:24:10;;;;;;;0.90;0.80;;;6.70;99.90;;;;;;4962860;28;20057;-73
2023/11/21 08:26:36;;;;;;;2.20;1.20;;;6.70;99.90;;;;;;4973804;28;20034;-74
2023/11/21 08:29:02;;;;;;;0.60;0.60;;;6.80;99.90;;;;;;4954811;28;20027;-73
2023/11/21 08:31:28;;;;;;;0.73;0.70;;;6.80;99.90;;;;;;4966278;28;20031;-73
2023/11/21 08:33:57;;;;;;;1.33;0.90;;;6.80;99.90;;;;;;4956110;28;20149;-73
2023/11/21 08:36:24;;;;;;;1.85;1.00;;;6.80;99.90;;;;;;4976174;28;20035;-74
2023/11/21 08:38:52;;;;;;;1.15;1.02;;;6.90;99.90;;;;;;4976943;28;20027;-74
2023/11/21 08:41:21;;;;;;;1.45;0.90;;;6.90;99.90;;;;;;4978130;28;20027;-74
2023/11/21 08:43:49;;;;;;;2.30;1.10;;;6.90;99.90;;;;;;4975736;28;20026;-75
2023/11/21 08:46:17;;;;;;;1.17;1.08;;;7.00;99.90;;;;;;4977370;28;20026;-74
2023/11/21 08:48:43;;;;;;;0.80;0.80;;;7.00;99.90;;;;;;4952318;28;20031;-73
2023/11/21 08:51:11;;;;;;;1.23;0.90;;;7.00;99.90;;;;;;4964873;28;20033;-74
2023/11/21 08:53:37;;;;;;;2.90;1.15;;;7.00;99.90;;;;;;4965323;28;20023;-74
2023/11/21 08:56:04;;;;;;;1.10;1.00;;;7.00;99.90;;;;;;4967793;28;20594;-73
2023/11/21 08:58:31;;;;;;;1.63;1.20;;;7.00;99.90;;;;;;4955114;28;20034;-72
2023/11/21 09:00:56;;;;;;;2.60;1.42;;;7.00;99.90;;;;;;4970703;28;20405;-73
2023/11/21 09:03:22;;;;;;;0.77;0.77;;;7.10;99.90;;;;;;4963798;28;20038;-74
2023/11/21 09:05:51;;;;;;;2.05;1.05;;;7.00;99.90;;;;;;4971802;28;20019;-73
2023/11/21 09:08:16;;;;;;;1.63;0.82;;;7.00;99.90;;;;;;4969931;28;20026;-73
2023/11/21 09:10:45;;;;;;;1.30;1.20;;;7.00;99.90;;;;;;4975560;28;20186;-73
2023/11/21 09:13:10;;;;;;;1.25;1.17;;;7.10;99.90;;;;;;4973470;28;20043;-72
2023/11/21 09:15:40;;;;;;;0.95;0.95;;;7.10;99.90;;;;;;4975031;28;20470;-72
2023/11/21 09:18:05;;;;;;;1.02;1.00;;;7.10;99.90;;;;;;4969854;28;20019;-73
2023/11/21 09:20:31;;;;;;;2.13;1.10;;;7.10;99.90;;;;;;4973366;28;20041;-73
2023/11/21 09:22:56;;;;;;;1.10;1.10;;;7.20;99.90;;;;;;4971609;28;20026;-72
2023/11/21 09:25:22;;;;;;;1.48;1.33;;;7.20;99.90;;;;;;4968440;28;20035;-73
2023/11/21 09:27:48;;;;;;;3.15;1.48;;;7.20;99.90;;;;;;4954467;28;20805;-73
2023/11/21 09:30:16;;;;;;;1.20;1.10;;;7.20;99.90;;;;;;4951706;28;20030;-73
2023/11/21 09:32:45;;;;;;;1.23;1.10;;;7.20;99.90;;;;;;4965609;28;20031;-72
2023/11/21 09:35:11;;;;;;;;;;;7.40;99.90;;;;;;4976387;28;20035;-73
2023/11/21 09:37:38;;;;;;;1.45;1.27;;;7.40;99.90;;;;;;4972426;28;20529;-73
2023/11/21 09:40:10;;;;;;;1.30;1.20;;;7.50;99.90;;;;;;4974621;28;20067;-73
2023/11/21 09:42:54;;;;;;;2.10;1.90;;;7.60;99.90;;;;;;4979525;28;20556;-73
2023/11/21 09:45:27;;;;;;;1.25;1.00;;;7.60;99.90;;;;;;4978195;28;20043;-74
2023/11/21 09:47:55;;;;;;;2.55;1.30;;;7.70;99.90;;;;;;4972143;28;20388;-74
2023/11/21 09:50:21;;;;;;;0.73;0.73;;;7.70;99.90;;;;;;4974470;28;20480;-73
2023/11/21 09:53:20;;;;;;;0.90;0.90;;;7.90;99.90;;;;;;4971626;28;20035;-74
2023/11/21 09:55:48;;;;;;;2.13;0.95;;;7.80;99.90;;;;;;4978332;28;20023;-74
2023/11/21 09:58:15;;;;;;;2.10;1.10;;;7.80;99.90;;;;;;4973302;28;20027;-74
2023/11/21 10:00:42;;;;;;;1.42;1.30;;;7.80;99.90;;;;;;4957594;28;20059;-73
2023/11/21 10:03:09;;;;;;;0.95;0.90;;;7.90;99.90;;;;;;4980072;28;20043;-73
2023/11/21 10:05:35;;;;;;;1.27;1.10;;;7.80;99.90;;;;;;4975700;28;20038;-74
2023/11/21 10:08:01;;;;;;;1.95;1.25;;;7.80;99.90;;;;;;4974820;28;20046;-74
2023/11/21 10:10:32;;;;;;;1.05;0.95;;;7.80;99.90;;;;;;4977948;28;20058;-73
2023/11/21 10:13:03;;;;;;;1.25;0.98;;;7.90;99.90;;;;;;4975087;28;20510;-73
2023/11/21 10:15:44;;;;;;;1.17;1.17;;;7.90;99.90;;;;;;4955722;28;20027;-73
2023/11/21 10:18:10;;;;;;;2.17;1.02;;;7.90;99.90;;;;;;4976914;28;20118;-73
2023/11/21 10:20:38;;;;;;;1.25;1.17;;;7.90;99.90;;;;;;4977161;28;20019;-73
2023/11/21 10:23:04;;;;;;;3.45;1.17;;;8.00;99.90;;;;;;4967327;28;20027;-73
2023/11/21 10:25:30;;;;;;;1.35;1.25;;;8.00;99.90;;;;;;4979323;28;20033;-73
2023/11/21 10:28:01;;;;;;;10.40;1.38;;;8.00;99.90;;;;;;4953786;28;20026;-73
2023/11/21 10:30:38;;;;;;;1.75;1.02;;;8.10;99.90;;;;;;4977668;28;20030;-72
2023/11/21 10:33:11;;;;;;;0.95;0.90;;;8.10;99.90;;;;;;4973619;28;20082;-72
2023/11/21 10:35:42;;;;;;;3.38;1.30;;;8.30;99.90;;;;;;4957306;28;20089;-73
2023/11/21 10:38:13;;;;;;;2.15;1.33;;;8.40;99.90;;;;;;4967079;28;20027;-73
2023/11/21 10:40:44;;;;;;;3.40;1.40;;;8.40;99.90;;;;;;4952503;28;20079;-73
2023/11/21 10:43:10;;;;;;;2.63;1.35;;;8.50;99.90;;;;;;4975652;28;20038;-72
2023/11/21 10:45:43;;;;;;;1.70;1.20;;;8.50;99.90;;;;;;4977142;28;20023;-73
2023/11/21 10:48:17;;;;;;;1.20;1.10;;;8.60;99.90;;;;;;4968735;28;20495;-73
2023/11/21 10:50:47;;;;;;;3.80;1.30;;;8.60;99.90;;;;;;4971995;28;20030;-73
2023/11/21 10:53:13;;;;;;;1.40;1.25;;;8.60;99.90;;;;;;4959651;28;20086;-73
2023/11/21 10:55:39;;;;;;;2.72;1.25;;;8.70;99.90;;;;;;4977723;28;20027;-72
2023/11/21 10:58:06;;;;;;;1.98;1.33;;;8.70;99.90;;;;;;4959332;28;20492;-73
2023/11/21 11:00:34;;;;;;;1.00;1.00;;;8.70;99.90;;;;;;4974016;28;20715;-73
2023/11/21 11:03:01;;;;;;;1.92;1.20;;;8.70;99.90;;;;;;4976056;28;20048;-73
2023/11/21 11:05:32;;;;;;;1.08;1.08;;;8.70;99.90;;;;;;4975571;28;20642;-73
2023/11/21 11:08:11;;;;;;;2.70;1.08;;;8.70;99.90;;;;;;4960715;28;20094;-72
2023/11/21 11:10:37;;;;;;;1.33;1.00;;;8.70;99.90;;;;;;4974463;28;20042;-72
2023/11/21 11:13:04;;;;;;;3.13;1.17;;;8.70;99.90;;;;;;4958060;28;20038;-72
2023/11/21 11:15:30;;;;;;;1.63;1.30;;;8.70;99.90;;;;;;4970695;28;20031;-73
2023/11/21 11:17:58;;;;;;;1.40;1.02;;;8.70;99.90;;;;;;4958504;28;20026;-73
2023/11/21 11:20:27;;;;;;;;;;;8.60;99.90;;;;;;4967025;28;20035;-74
2023/11/21 11:23:01;;;;;;;;;;;8.60;99.90;;;;;;4975250;28;19946;-73
2023/11/21 11:26:08;;;;;;;1.20;1.10;;;8.60;99.90;;;;;;4974508;28;19910;-73
2023/11/21 11:29:08;;;;;;;1.10;1.00;;;8.60;99.90;;;;;;4931582;29;20032;-72
2023/11/21 11:31:55;;;;;;;1.08;1.08;;;8.60;99.90;;;;;;4902210;29;20036;-73
2023/11/21 11:34:37;;;;;;;2.97;1.45;;;8.60;99.90;;;;;;4936406;29;20044;-72
2023/11/21 11:37:06;;;;;;;2.70;1.13;;;8.60;99.90;;;;;;4932987;29;20039;-73
2023/11/21 11:39:38;;;;;;;2.33;1.17;;;8.60;99.90;;;;;;4945674;28;20039;-73
2023/11/21 11:42:17;;;;;;;2.60;2.40;;;8.60;99.90;;;;;;4973623;28;20022;-73
2023/11/21 11:44:49;;;;;;;;;;;8.70;99.90;;;;;;4973444;28;20261;-73
2023/11/21 11:47:16;;;;;;;1.92;1.40;;;8.80;99.90;;;;;;4972231;28;19914;-74
2023/11/21 11:49:59;;;;;;;1.40;1.27;;;8.90;99.90;;;;;;4969540;28;20503;-73
2023/11/21 11:52:43;;;;;;;1.90;1.50;;;9.20;99.90;;;;;;4971218;28;20090;-74
2023/11/21 11:55:13;;;;;;;1.92;1.50;;;9.30;99.90;;;;;;4951256;28;20488;-74
2023/11/21 11:57:40;;;;;;;1.50;1.40;;;9.40;99.90;;;;;;4976771;28;20023;-73
2023/11/21 12:00:21;;;;;;;2.63;1.88;;;9.30;99.90;;;;;;4974386;28;20110;-74
2023/11/21 12:02:52;;;;;;;1.67;1.33;;;9.30;99.90;;;;;;4951319;28;20030;-74
2023/11/21 12:05:20;;;;;;;1.88;1.17;;;9.40;99.90;;;;;;4954930;28;20484;-73
2023/11/21 12:07:53;;;;;;;1.33;1.20;;;9.40;99.90;;;;;;4974436;28;20061;-73
2023/11/21 12:10:25;;;;;;;1.58;1.23;;;9.50;99.90;;;;;;4971322;28;20069;-74
2023/11/21 12:12:52;;;;;;;1.70;1.30;;;9.60;99.90;;;;;;4976117;28;20033;-72
2023/11/21 12:15:19;;;;;;;1.30;1.20;;;9.50;99.90;;;;;;4952588;28;20043;-74
2023/11/21 12:17:51;;;;;;;1.10;1.00;;;9.40;99.90;;;;;;4971320;28;20026;-72
2023/11/21 12:20:22;;;;;;;2.03;1.20;;;9.30;99.90;;;;;;4972000;28;20035;-72
2023/11/21 12:22:55;;;;;;;1.55;1.10;;;9.20;99.90;;;;;;4961311;28;20019;-73
2023/11/21 12:25:23;;;;;;;1.08;0.95;;;9.10;99.90;;;;;;4951878;28;20120;-73
2023/11/21 12:27:51;;;;;;;0.90;0.90;;;9.10;99.90;;;;;;4979932;28;20053;-74
2023/11/21 12:30:24;;;;;;;3.17;1.00;;;9.00;99.90;;;;;;4981344;28;20026;-74
2023/11/21 12:32:52;;;;;;;1.08;1.00;;;8.80;99.90;;;;;;4971832;28;20057;-75
2023/11/21 12:35:22;;;;;;;1.10;1.00;;;8.70;99.90;;;;;;4966044;28;20030;-75
2023/11/21 12:37:50;;;;;;;1.27;1.15;;;8.60;99.90;;;;;;4957272;28;20050;-75
2023/11/21 12:40:22;;;;;;;4.40;1.83;;;8.60;99.90;;;;;;4979633;28;20083;-75
2023/11/21 12:46:11;;;;;;;4.35;1.45;;;8.40;99.90;;;;;;4982823;28;20597;-75
2023/11/21 12:48:43;;;;;;;2.63;1.35;;;8.50;99.90;;;;;;4972539;28;20038;-75
2023/11/21 12:54:52;;;;;;;2.10;1.70;;;8.50;99.90;;;;;;4966523;29;20051;-76
2023/11/21 12:57:19;;;;;;;2.25;1.20;;;8.60;99.90;;;;;;4978199;28;20095;-75
2023/11/21 12:59:45;;;;;;;2.25;1.20;;;8.60;99.90;;;;;;4978604;28;20046;-75
2023/11/21 13:02:15;;;;;;;1.60;1.40;;;8.60;99.90;;;;;;4975853;28;20050;-75
2023/11/21 13:04:41;;;;;;;3.33;1.45;;;8.60;99.90;;;;;;4977333;28;20030;-73
2023/11/21 13:07:14;;;;;;;3.08;1.63;;;8.60;99.90;;;;;;4955484;28;20251;-74
2023/11/21 13:09:40;;;;;;;1.60;1.50;;;8.50;99.90;;;;;;4955867;28;20035;-75